Time;durP1;ratioP1;P1;durP2;ratioP2;P2;SDS_P1;SDS_P2;PMS_P1;PMS_P2;Temp;Humidity;BMP_temperature;BMP_pressure;BME280_temperature;BME280_humidity;BME280_pressure;Samples;Min_cycle;Max_cycle;Signal;HPM_P1;HPM_P2
2024/01/26 00:01:38;;;;;;;10.30;4.10;;;;;;;7.13;69.89;100327.59;5067967;28;20696;-76
2024/01/26 00:04:04;;;;;;;9.65;3.47;;;;;;;6.97;70.90;100312.78;5050372;28;20032;-75
2024/01/26 00:06:30;;;;;;;10.35;3.95;;;;;;;6.94;70.94;100327.22;5067303;28;20718;-75
2024/01/26 00:08:55;;;;;;;10.40;3.95;;;;;;;6.84;71.46;100332.88;5086731;28;20032;-75
2024/01/26 00:11:20;;;;;;;10.00;3.50;;;;;;;6.75;72.18;100327.84;5088153;28;20063;-75
2024/01/26 00:13:46;;;;;;;9.00;3.10;;;;;;;6.69;72.67;100328.59;5085756;28;20097;-76
2024/01/26 00:16:12;;;;;;;8.63;3.20;;;;;;;6.50;73.12;100319.41;5067686;28;20520;-76
2024/01/26 00:18:40;;;;;;;7.43;2.67;;;;;;;6.21;73.94;100299.91;5064164;28;20047;-76
2024/01/26 00:21:07;;;;;;;7.22;2.78;;;;;;;6.20;74.79;100312.31;5088235;28;20060;-76
2024/01/26 00:23:32;;;;;;;10.27;3.70;;;;;;;6.13;74.73;100297.34;5088485;28;20028;-76
2024/01/26 00:25:58;;;;;;;10.73;3.30;;;;;;;6.18;73.80;100305.56;5087681;28;20484;-76
2024/01/26 00:28:23;;;;;;;7.38;2.67;;;;;;;6.13;73.35;100292.91;5077214;28;20031;-76
2024/01/26 00:30:49;;;;;;;9.57;3.13;;;;;;;6.18;72.89;100292.34;5049902;28;20927;-77
2024/01/26 00:33:14;;;;;;;7.88;2.97;;;;;;;6.22;72.60;100285.66;5049648;28;20032;-76
2024/01/26 00:35:39;;;;;;;9.02;2.95;;;;;;;6.36;72.61;100303.34;5068395;28;20106;-77
2024/01/26 00:38:05;;;;;;;11.77;3.28;;;;;;;6.39;72.52;100302.97;5071346;28;20459;-75
2024/01/26 00:40:30;;;;;;;7.60;2.72;;;;;;;6.17;71.07;100267.69;5067398;28;20119;-77
2024/01/26 00:42:56;;;;;;;9.65;2.83;;;;;;;6.22;71.08;100285.66;5067650;28;20033;-76
2024/01/26 00:45:21;;;;;;;7.95;2.90;;;;;;;6.38;70.84;100280.16;5070878;28;20443;-77
2024/01/26 00:47:47;;;;;;;8.73;2.60;;;;;;;6.27;70.32;100275.31;5076210;28;20112;-75
2024/01/26 00:50:12;;;;;;;7.57;3.13;;;;;;;6.47;69.82;100294.09;5073770;28;20025;-76
2024/01/26 00:52:37;;;;;;;7.15;2.90;;;;;;;6.22;68.80;100265.28;5091240;28;20550;-77
2024/01/26 00:55:03;;;;;;;10.20;2.60;;;;;;;6.56;68.43;100300.09;5092213;28;20028;-76
2024/01/26 00:57:29;;;;;;;8.05;2.55;;;;;;;6.46;68.50;100286.34;5091252;28;20024;-76
2024/01/26 00:59:55;;;;;;;9.10;2.97;;;;;;;6.52;68.01;100293.53;5091652;28;20412;-76
2024/01/26 01:02:21;;;;;;;11.15;2.85;;;;;;;6.57;67.92;100299.13;5090925;28;20024;-77
2024/01/26 01:04:46;;;;;;;9.95;2.75;;;;;;;6.61;67.96;100317.09;5086214;28;20031;-76
2024/01/26 01:07:12;;;;;;;8.63;2.55;;;;;;;6.68;67.18;100311.03;5071435;28;20040;-76
2024/01/26 01:09:40;;;;;;;10.38;2.70;;;;;;;6.62;67.04;100310.81;5074507;28;20024;-76
2024/01/26 01:12:06;;;;;;;5.65;3.03;;;;;;;6.55;67.11;100309.06;5071139;28;20130;-75
2024/01/26 01:14:32;;;;;;;7.22;2.30;;;;;;;6.51;67.43;100313.09;5074147;28;20020;-75
2024/01/26 01:16:57;;;;;;;5.97;2.30;;;;;;;6.51;67.59;100321.88;5091041;28;20141;-76
2024/01/26 01:19:23;;;;;;;10.05;2.40;;;;;;;6.41;67.12;100297.50;5089905;28;20062;-76
2024/01/26 01:21:48;;;;;;;12.20;2.63;;;;;;;6.40;67.67;100303.81;5091274;28;20031;-77
2024/01/26 01:24:14;;;;;;;5.95;2.03;;;;;;;6.45;67.65;100327.91;5090843;28;20119;-76
2024/01/26 01:26:39;;;;;;;6.85;2.60;;;;;;;6.54;66.97;100320.66;5072327;28;20024;-76
2024/01/26 01:29:06;;;;;;;7.85;2.65;;;;;;;6.37;67.74;100320.06;5072997;28;20036;-76
2024/01/26 01:31:31;;;;;;;9.05;2.50;;;;;;;6.39;67.61;100329.47;5070854;28;20029;-76
2024/01/26 01:33:57;;;;;;;7.78;2.33;;;;;;;6.36;67.40;100324.56;5070905;28;20036;-76
2024/01/26 01:36:22;;;;;;;6.28;2.03;;;;;;;6.40;67.11;100325.81;5070416;28;20029;-77
2024/01/26 01:38:48;;;;;;;11.73;2.78;;;;;;;6.43;66.89;100332.56;5072553;28;20052;-76
2024/01/26 01:41:13;;;;;;;7.90;2.22;;;;;;;6.30;66.82;100312.03;5070449;28;20116;-76
2024/01/26 01:43:38;;;;;;;8.18;2.50;;;;;;;6.28;66.32;100298.16;5070538;28;20032;-76
2024/01/26 01:46:04;;;;;;;7.53;2.35;;;;;;;6.35;67.32;100332.69;5070948;28;20107;-76
2024/01/26 01:48:29;;;;;;;9.75;2.50;;;;;;;6.31;67.13;100326.09;5056633;28;20058;-76
2024/01/26 01:50:55;;;;;;;6.03;2.45;;;;;;;6.39;66.78;100323.34;5090289;28;20035;-76
2024/01/26 01:53:20;;;;;;;7.82;2.10;;;;;;;6.42;66.66;100337.06;5090285;28;20024;-75
2024/01/26 01:55:46;;;;;;;6.20;2.35;;;;;;;6.56;65.86;100340.69;5081327;28;20035;-77
2024/01/26 01:58:13;;;;;;;7.25;1.98;;;;;;;6.51;66.23;100343.06;5071220;28;20401;-77
2024/01/26 02:00:39;;;;;;;7.47;2.40;;;;;;;6.50;65.96;100336.13;5070699;28;20150;-76
2024/01/26 02:03:04;;;;;;;6.13;2.30;;;;;;;6.52;65.69;100317.38;5070101;28;20578;-76
2024/01/26 02:05:29;;;;;;;8.77;2.42;;;;;;;6.42;66.16;100323.81;5069849;28;20665;-76
2024/01/26 02:07:55;;;;;;;7.60;2.40;;;;;;;6.41;65.36;100311.56;5070080;28;20555;-76
2024/01/26 02:10:20;;;;;;;8.82;2.83;;;;;;;6.40;66.23;100309.94;5088408;28;20039;-78
2024/01/26 02:12:46;;;;;;;6.30;2.28;;;;;;;6.57;65.89;100328.25;5071839;28;20020;-76
2024/01/26 02:15:12;;;;;;;10.25;3.05;;;;;;;6.52;66.24;100325.31;5069989;28;20056;-76
2024/01/26 02:17:39;;;;;;;12.02;3.30;;;;;;;6.60;65.57;100338.50;5069178;28;20424;-76
2024/01/26 02:20:06;;;;;;;8.48;2.53;;;;;;;6.41;66.45;100310.75;5071943;28;20060;-78
2024/01/26 02:22:31;;;;;;;7.20;2.38;;;;;;;6.52;66.13;100330.63;5069544;28;20039;-76
2024/01/26 02:24:57;;;;;;;8.63;2.20;;;;;;;6.47;66.36;100340.97;5051354;28;20079;-76
2024/01/26 02:27:23;;;;;;;10.55;2.50;;;;;;;6.48;66.30;100332.84;5089794;28;20397;-75
2024/01/26 02:29:48;;;;;;;8.38;3.45;;;;;;;6.24;66.30;100303.00;5088463;28;20035;-76
2024/01/26 02:32:14;;;;;;;9.10;2.17;;;;;;;6.42;66.24;100321.16;5072256;28;20028;-77
2024/01/26 02:34:40;;;;;;;7.95;2.60;;;;;;;6.32;66.33;100295.97;5089855;28;20425;-76
2024/01/26 02:37:05;;;;;;;7.15;2.30;;;;;;;6.38;66.09;100304.00;5091591;28;20028;-76
2024/01/26 02:39:33;;;;;;;10.80;3.22;;;;;;;6.22;65.68;100281.19;5088720;28;20370;-75
2024/01/26 02:41:59;;;;;;;8.70;2.75;;;;;;;6.34;66.20;100328.41;5089414;28;20485;-77
2024/01/26 02:44:24;;;;;;;9.43;2.40;;;;;;;6.27;65.83;100315.03;5089237;28;20054;-76
2024/01/26 02:46:49;;;;;;;11.32;2.88;;;;;;;6.27;66.01;100316.88;5094425;28;20054;-76
2024/01/26 02:49:15;;;;;;;9.85;2.55;;;;;;;6.29;65.96;100309.56;5085225;28;20039;-76
2024/01/26 02:51:41;;;;;;;9.05;2.70;;;;;;;6.37;66.11;100328.00;5069172;28;20044;-76
2024/01/26 02:54:06;;;;;;;9.52;2.55;;;;;;;6.37;65.73;100331.47;5069474;28;20488;-77
2024/01/26 02:56:32;;;;;;;6.55;2.90;;;;;;;6.41;66.39;100332.75;5069285;28;20566;-76
2024/01/26 02:58:57;;;;;;;6.13;2.10;;;;;;;6.42;65.60;100318.50;5070924;28;20575;-77
2024/01/26 03:01:23;;;;;;;6.35;2.40;;;;;;;6.43;65.65;100320.13;5088374;28;20493;-76
2024/01/26 03:03:48;;;;;;;10.05;2.83;;;;;;;6.34;65.96;100315.97;5088906;28;20448;-76
2024/01/26 03:06:14;;;;;;;10.98;3.00;;;;;;;6.41;65.25;100324.00;5084156;28;20704;-77
2024/01/26 03:08:39;;;;;;;7.88;2.60;;;;;;;6.49;65.64;100317.78;5067974;28;20028;-75
2024/01/26 03:11:05;;;;;;;7.45;2.67;;;;;;;6.21;66.02;100291.94;5067669;28;20024;-76
2024/01/26 03:13:31;;;;;;;8.02;2.67;;;;;;;6.49;65.12;100323.88;5088225;28;20042;-76
2024/01/26 03:15:56;;;;;;;6.95;2.58;;;;;;;6.48;65.00;100319.59;5086893;28;20044;-77
2024/01/26 03:18:22;;;;;;;6.85;2.53;;;;;;;6.44;65.70;100321.78;5068387;28;20032;-76
2024/01/26 03:20:47;;;;;;;10.25;3.05;;;;;;;6.50;66.33;100330.00;5070873;28;20031;-76
2024/01/26 03:23:13;;;;;;;7.22;2.50;;;;;;;6.46;66.28;100323.41;5067964;28;21361;-76
2024/01/26 03:25:39;;;;;;;10.05;2.83;;;;;;;6.36;66.00;100308.66;5068257;28;20470;-76
2024/01/26 03:28:06;;;;;;;8.55;3.25;;;;;;;6.36;65.95;100290.13;5068530;28;20100;-76
2024/01/26 03:30:32;;;;;;;8.35;2.80;;;;;;;6.46;65.95;100313.66;5071236;28;20021;-76
2024/01/26 03:32:58;;;;;;;6.97;2.45;;;;;;;6.33;65.56;100305.56;5068441;28;20473;-78
2024/01/26 03:35:24;;;;;;;10.57;3.20;;;;;;;6.40;65.28;100315.22;5050055;28;20082;-76
2024/01/26 03:37:49;;;;;;;12.13;3.28;;;;;;;6.54;66.24;100332.09;5067777;28;20445;-76
2024/01/26 03:40:14;;;;;;;8.27;2.78;;;;;;;6.25;66.38;100301.16;5074664;28;20032;-76
2024/01/26 03:42:40;;;;;;;10.05;3.67;;;;;;;6.43;66.05;100317.50;5088234;28;20027;-75
2024/01/26 03:45:07;;;;;;;7.65;2.72;;;;;;;6.35;65.90;100307.00;5087654;28;20035;-75
2024/01/26 03:47:32;;;;;;;6.97;2.45;;;;;;;6.35;65.72;100301.69;5076333;28;20020;-76
2024/01/26 03:49:58;;;;;;;9.55;2.83;;;;;;;6.38;65.78;100313.78;5073304;28;20027;-76
2024/01/26 03:52:23;;;;;;;6.55;2.63;;;;;;;6.53;65.55;100329.63;5070290;28;20024;-75
2024/01/26 03:54:48;;;;;;;11.15;2.88;;;;;;;6.49;65.56;100323.06;5069974;28;20289;-77
2024/01/26 03:57:14;;;;;;;9.18;2.45;;;;;;;6.48;65.79;100329.34;5088059;28;20532;-76
2024/01/26 03:59:39;;;;;;;8.70;3.40;;;;;;;6.51;66.04;100315.75;5087674;28;20036;-75
2024/01/26 04:02:05;;;;;;;9.25;2.60;;;;;;;6.33;65.66;100298.41;5087314;28;20115;-76
2024/01/26 04:04:31;;;;;;;8.73;3.28;;;;;;;6.41;65.67;100300.97;5087825;28;20039;-77
2024/01/26 04:06:56;;;;;;;9.27;2.80;;;;;;;6.33;65.94;100281.72;5083422;28;20028;-78
2024/01/26 04:09:22;;;;;;;11.82;2.60;;;;;;;6.30;65.63;100282.91;5067945;28;20032;-76
2024/01/26 04:11:47;;;;;;;5.57;2.63;;;;;;;6.14;65.18;100268.03;5085454;28;20039;-77
2024/01/26 04:14:13;;;;;;;10.30;3.05;;;;;;;6.43;65.00;100301.59;5087770;28;20032;-76
2024/01/26 04:16:38;;;;;;;6.60;2.53;;;;;;;6.36;65.17;100292.75;5087827;28;20051;-76
2024/01/26 04:19:04;;;;;;;10.90;2.58;;;;;;;6.35;64.47;100298.25;5087950;28;20050;-76
2024/01/26 04:21:29;;;;;;;8.13;2.22;;;;;;;6.44;64.42;100316.50;5072644;28;20424;-75
2024/01/26 04:23:55;;;;;;;7.88;2.30;;;;;;;6.55;63.90;100323.13;5067495;28;20060;-76
2024/01/26 04:26:20;;;;;;;7.97;2.20;;;;;;;6.53;63.99;100321.69;5067474;28;20029;-75
2024/01/26 04:28:45;;;;;;;10.60;2.58;;;;;;;6.56;64.15;100334.56;5067087;28;20051;-77
2024/01/26 04:31:11;;;;;;;7.60;2.50;;;;;;;6.50;63.85;100328.19;5052248;28;20036;-76
2024/01/26 04:33:36;;;;;;;7.40;2.47;;;;;;;6.43;64.08;100325.44;5067824;28;20161;-77
2024/01/26 04:36:02;;;;;;;11.00;2.70;;;;;;;6.52;63.70;100322.69;5067575;28;20020;-76
2024/01/26 04:38:29;;;;;;;8.02;2.42;;;;;;;6.51;63.58;100343.06;5067730;28;20109;-76
2024/01/26 04:40:54;;;;;;;7.47;2.30;;;;;;;6.21;64.33;100306.03;5074889;28;20481;-76
2024/01/26 04:43:20;;;;;;;6.60;1.90;;;;;;;6.50;63.40;100341.44;5087920;28;20034;-76
2024/01/26 04:45:45;;;;;;;7.95;1.85;;;;;;;6.42;64.11;100342.34;5087219;28;20078;-76
2024/01/26 04:48:11;;;;;;;8.32;2.55;;;;;;;6.39;64.14;100334.75;5076151;28;20024;-76
2024/01/26 04:50:37;;;;;;;7.70;2.60;;;;;;;6.33;64.68;100351.41;5069671;28;20429;-76
2024/01/26 04:53:02;;;;;;;8.88;3.00;;;;;;;6.32;64.41;100344.47;5067767;28;20036;-78
2024/01/26 04:55:29;;;;;;;8.07;2.22;;;;;;;6.30;64.13;100327.13;5067785;28;20109;-76
2024/01/26 04:57:54;;;;;;;5.85;2.05;;;;;;;6.36;63.78;100351.03;5067577;28;20067;-76
2024/01/26 05:00:20;;;;;;;8.80;2.33;;;;;;;6.42;64.07;100365.38;5067399;28;20154;-77
2024/01/26 05:02:46;;;;;;;9.77;2.40;;;;;;;6.12;63.79;100332.78;5072190;28;20032;-77
2024/01/26 05:05:14;;;;;;;12.40;2.95;;;;;;;6.25;63.95;100362.09;5077004;28;20050;-76
2024/01/26 05:07:39;;;;;;;7.07;2.40;;;;;;;6.30;63.82;100372.16;5085033;28;20058;-76
2024/01/26 05:10:06;;;;;;;8.13;3.10;;;;;;;6.34;64.68;100398.09;5087411;28;20036;-76
2024/01/26 05:12:32;;;;;;;8.25;2.97;;;;;;;6.24;64.16;100379.81;5085173;28;20052;-77
2024/01/26 05:14:58;;;;;;;12.13;3.28;;;;;;;6.27;64.40;100394.50;5087219;28;20062;-76
2024/01/26 05:17:24;;;;;;;12.85;2.85;;;;;;;6.24;65.44;100389.59;5087261;28;20028;-76
2024/01/26 05:19:49;;;;;;;7.90;2.45;;;;;;;6.14;64.79;100384.56;5086271;28;20058;-76
2024/01/26 05:22:15;;;;;;;9.25;2.70;;;;;;;6.01;64.50;100371.94;5073634;28;20477;-76
2024/01/26 05:24:40;;;;;;;11.38;3.08;;;;;;;6.28;63.51;100401.47;5066490;28;20060;-75
2024/01/26 05:27:07;;;;;;;7.78;2.75;;;;;;;6.24;64.45;100389.59;5066491;28;20021;-76
2024/01/26 05:29:32;;;;;;;9.73;3.10;;;;;;;6.30;64.27;100399.44;5076628;28;20075;-77
2024/01/26 05:31:58;;;;;;;8.75;2.83;;;;;;;6.21;63.63;100389.94;5079577;28;20043;-76
2024/01/26 05:34:23;;;;;;;10.18;3.80;;;;;;;6.20;64.21;100396.25;5072249;28;20052;-77
2024/01/26 05:36:49;;;;;;;6.78;2.72;;;;;;;6.39;63.46;100408.94;5090050;28;20028;-76
2024/01/26 05:39:14;;;;;;;8.98;3.55;;;;;;;6.25;64.18;100401.81;5057551;28;20071;-78
2024/01/26 05:41:40;;;;;;;8.98;2.97;;;;;;;6.05;64.66;100396.25;5072412;28;20030;-76
2024/01/26 05:44:06;;;;;;;11.25;3.67;;;;;;;6.22;65.20;100424.19;5069937;28;20036;-76
2024/01/26 05:46:32;;;;;;;12.27;2.92;;;;;;;6.22;64.39;100407.50;5069896;28;20029;-76
2024/01/26 05:48:58;;;;;;;7.10;2.78;;;;;;;6.12;64.26;100399.81;5069830;28;20029;-76
2024/01/26 05:51:24;;;;;;;9.32;3.53;;;;;;;6.14;64.33;100404.94;5054174;28;20024;-77
2024/01/26 05:53:53;;;;;;;7.57;2.85;;;;;;;6.27;64.31;100421.00;5051841;28;20080;-76
2024/01/26 05:56:19;;;;;;;9.20;2.72;;;;;;;6.26;64.56;100427.31;5069558;28;20048;-76
2024/01/26 05:58:45;;;;;;;11.40;4.28;;;;;;;6.25;63.26;100417.69;5070068;28;20052;-76
2024/01/26 06:01:11;;;;;;;6.97;2.30;;;;;;;6.38;62.58;100439.09;5070604;28;20032;-76
2024/01/26 06:03:37;;;;;;;6.55;3.10;;;;;;;6.38;62.29;100433.78;5070688;28;20482;-77
2024/01/26 06:06:03;;;;;;;6.30;3.08;;;;;;;6.35;62.61;100414.78;5069890;28;20032;-77
2024/01/26 06:08:29;;;;;;;12.10;4.32;;;;;;;6.33;62.17;100435.34;5051644;28;20550;-76
2024/01/26 06:10:56;;;;;;;8.18;2.75;;;;;;;6.40;62.21;100429.13;5069494;28;20025;-76
2024/01/26 06:13:22;;;;;;;9.77;2.85;;;;;;;6.29;62.86;100418.16;5087469;28;20067;-76
2024/01/26 06:15:48;;;;;;;12.95;2.97;;;;;;;6.32;63.03;100420.47;5089431;28;20055;-76
2024/01/26 06:18:13;;;;;;;10.02;3.00;;;;;;;6.40;62.84;100420.38;5089145;28;20024;-76
2024/01/26 06:20:39;;;;;;;12.55;3.83;;;;;;;6.38;62.57;100425.84;5088946;28;20036;-76
2024/01/26 06:23:05;;;;;;;9.23;3.33;;;;;;;6.40;62.70;100423.84;5088046;28;20111;-76
2024/01/26 06:25:30;;;;;;;8.57;2.65;;;;;;;6.36;62.78;100425.22;5089427;28;20555;-76
2024/01/26 06:27:56;;;;;;;10.02;3.92;;;;;;;6.34;62.98;100415.81;5089591;28;20028;-77
2024/01/26 06:30:21;;;;;;;7.70;3.00;;;;;;;6.33;63.05;100393.78;5070202;28;20108;-77
2024/01/26 06:32:47;;;;;;;23.25;7.32;;;;;;;6.59;62.59;100451.59;5071536;28;20032;-76
2024/01/26 06:35:12;;;;;;;12.20;4.50;;;;;;;6.35;63.80;100425.38;5069157;28;20033;-76
2024/01/26 06:37:37;;;;;;;16.65;6.70;;;;;;;6.35;63.64;100428.03;5069358;28;20029;-77
2024/01/26 06:40:03;;;;;;;9.55;3.38;;;;;;;6.29;63.97;100434.06;5068882;28;20028;-76
2024/01/26 06:42:32;;;;;;;14.35;4.65;;;;;;;6.31;64.18;100427.56;5057980;28;20028;-76
2024/01/26 06:44:57;;;;;;;10.63;4.10;;;;;;;6.33;63.52;100401.72;5089044;28;20028;-77
2024/01/26 06:47:23;;;;;;;12.60;5.25;;;;;;;6.36;63.54;100409.31;5089049;28;20032;-75
2024/01/26 06:49:48;;;;;;;7.20;2.90;;;;;;;6.61;63.79;100435.53;5076800;28;20085;-78
2024/01/26 06:52:14;;;;;;;11.02;3.95;;;;;;;6.67;63.91;100421.53;5053153;28;20032;-76
2024/01/26 06:54:39;;;;;;;26.70;7.93;;;;;;;6.92;63.28;100440.59;5068574;28;20104;-76
2024/01/26 06:57:05;;;;;;;21.15;6.95;;;;;;;7.02;62.96;100419.09;5050410;28;20031;-76
2024/01/26 06:59:32;;;;;;;10.40;3.78;;;;;;;7.12;62.38;100424.13;5068805;28;20478;-75
2024/01/26 07:01:58;;;;;;;10.13;3.15;;;;;;;7.17;62.04;100432.31;5069798;28;20741;-77
2024/01/26 07:04:23;;;;;;;11.23;4.30;;;;;;;7.24;61.03;100406.69;5069649;28;20047;-76
2024/01/26 07:06:48;;;;;;;7.00;2.60;;;;;;;7.37;60.68;100406.00;5068088;28;20028;-76
2024/01/26 07:09:14;;;;;;;6.50;2.83;;;;;;;7.63;59.99;100447.91;5067969;28;20016;-76
2024/01/26 07:11:39;;;;;;;8.63;2.63;;;;;;;7.68;59.97;100436.69;5050348;28;20028;-76
2024/01/26 07:14:05;;;;;;;9.07;2.42;;;;;;;7.75;59.13;100450.88;5071654;28;20863;-77
2024/01/26 07:16:30;;;;;;;12.48;4.32;;;;;;;7.88;59.72;100442.19;5068169;28;20040;-76
2024/01/26 07:18:55;;;;;;;6.38;2.65;;;;;;;7.77;59.28;100443.53;5050127;28;20039;-76
2024/01/26 07:21:21;;;;;;;7.57;2.67;;;;;;;7.90;58.31;100438.31;5068058;28;20021;-75
2024/01/26 07:23:49;;;;;;;6.70;1.88;;;;;;;7.87;58.37;100462.63;5082427;28;20036;-76
2024/01/26 07:26:19;;;;;;;6.75;2.13;;;;;;;7.84;57.99;100461.16;5088201;28;20562;-76
2024/01/26 07:28:45;;;;;;;6.35;2.78;;;;;;;8.07;57.45;100469.91;5088093;28;20046;-77
2024/01/26 07:31:11;;;;;;;8.75;3.03;;;;;;;8.23;58.60;100461.66;5068965;28;20090;-77
2024/01/26 07:33:36;;;;;;;13.68;4.93;;;;;;;8.62;57.81;100458.47;5070289;28;20040;-76
2024/01/26 07:36:01;;;;;;;7.88;3.47;;;;;;;9.01;55.48;100457.03;5068038;28;20684;-77
2024/01/26 07:38:27;;;;;;;6.65;2.97;;;;;;;9.08;56.38;100473.00;5067848;28;20078;-74
2024/01/26 07:40:53;;;;;;;6.90;2.75;;;;;;;9.59;53.88;100477.03;5067807;28;20032;-76
2024/01/26 07:43:19;;;;;;;8.82;2.40;;;;;;;9.07;54.47;100471.34;5074042;28;20104;-76
2024/01/26 07:45:44;;;;;;;10.77;3.08;;;;;;;9.24;53.93;100466.50;5074074;28;20099;-74
2024/01/26 07:48:12;;;;;;;6.88;1.98;;;;;;;8.70;54.48;100449.50;5060974;28;20468;-75
2024/01/26 07:50:41;;;;;;;11.25;2.47;;;;;;;8.79;55.32;100469.59;5080066;28;20016;-75
2024/01/26 07:53:07;;;;;;;6.43;2.20;;;;;;;8.96;54.47;100445.31;5058015;28;20024;-74
2024/01/26 07:55:33;;;;;;;8.30;2.20;;;;;;;9.07;54.50;100460.69;5087704;28;20047;-75
2024/01/26 07:57:58;;;;;;;6.03;2.30;;;;;;;9.06;54.38;100475.03;5088155;28;20031;-75
2024/01/26 08:00:24;;;;;;;7.57;2.70;;;;;;;9.09;55.71;100469.31;5088030;28;20093;-75
2024/01/26 08:02:49;;;;;;;5.20;1.92;;;;;;;8.87;54.47;100465.97;5086906;28;20040;-74
2024/01/26 08:05:14;;;;;;;9.65;2.70;;;;;;;8.92;54.21;100438.75;5049630;28;20105;-75
2024/01/26 08:07:40;;;;;;;10.18;3.03;;;;;;;9.36;53.56;100451.59;5068068;28;20102;-75
2024/01/26 08:10:06;;;;;;;7.35;2.50;;;;;;;9.39;53.01;100453.03;5050145;28;20025;-75
2024/01/26 08:12:32;;;;;;;8.05;2.53;;;;;;;9.57;51.97;100442.63;5050219;28;20116;-75
2024/01/26 08:14:57;;;;;;;6.65;2.28;;;;;;;9.59;52.08;100451.22;5087467;28;20477;-75
2024/01/26 08:17:22;;;;;;;9.57;2.70;;;;;;;9.79;51.08;100439.78;5089597;28;20553;-75
2024/01/26 08:19:48;;;;;;;8.57;2.72;;;;;;;9.58;51.71;100470.91;5086641;28;20085;-75
2024/01/26 08:22:13;;;;;;;7.40;3.20;;;;;;;9.76;51.20;100448.97;5070374;28;20021;-76
2024/01/26 08:24:39;;;;;;;9.20;2.22;;;;;;;10.01;51.25;100478.50;5094363;28;20057;-75
2024/01/26 08:27:05;;;;;;;10.23;3.60;;;;;;;9.97;51.69;100474.63;5098757;28;20524;-75
2024/01/26 08:29:31;;;;;;;8.32;2.92;;;;;;;9.72;51.79;100494.88;5098288;28;20046;-75
2024/01/26 08:31:57;;;;;;;13.18;3.65;;;;;;;10.02;52.37;100471.34;5098773;28;20050;-75
2024/01/26 08:34:22;;;;;;;9.23;3.42;;;;;;;10.25;51.77;100479.72;5068502;28;20036;-75
2024/01/26 08:36:48;;;;;;;7.57;3.00;;;;;;;10.31;50.93;100472.78;5089061;28;20021;-77
2024/01/26 08:39:14;;;;;;;6.82;1.98;;;;;;;10.05;49.33;100452.25;5087617;28;20401;-75
2024/01/26 08:41:43;;;;;;;9.13;2.55;;;;;;;10.22;49.51;100464.16;5100157;28;20024;-76
2024/01/26 08:44:08;;;;;;;7.32;2.50;;;;;;;10.41;50.12;100475.84;5095404;28;20120;-77
2024/01/26 08:46:34;;;;;;;8.68;3.58;;;;;;;10.49;49.39;100464.13;5086754;28;20091;-76
2024/01/26 08:48:59;;;;;;;9.18;3.40;;;;;;;10.41;49.72;100489.16;5077865;28;20039;-77
2024/01/26 08:51:25;;;;;;;8.93;4.28;;;;;;;10.54;49.34;100474.16;5078459;28;20020;-76
2024/01/26 08:53:50;;;;;;;9.20;3.08;;;;;;;10.71;49.11;100478.03;5079897;28;20056;-75
2024/01/26 08:56:16;;;;;;;7.72;2.70;;;;;;;10.42;48.20;100466.81;5077834;28;20116;-75
2024/01/26 08:58:41;;;;;;;8.25;3.08;;;;;;;10.54;49.58;100483.00;5086568;28;20095;-76
2024/01/26 09:01:08;;;;;;;6.45;2.35;;;;;;;10.60;48.39;100494.66;5086070;28;20063;-75
2024/01/26 09:03:34;;;;;;;6.35;2.90;;;;;;;10.62;49.88;100468.63;5057069;28;20020;-76
2024/01/26 09:05:59;;;;;;;4.68;2.00;;;;;;;10.75;48.57;100483.78;5089001;28;20033;-76
2024/01/26 09:08:25;;;;;;;6.07;2.10;;;;;;;10.52;48.47;100470.88;5090859;28;20028;-77
2024/01/26 09:10:50;;;;;;;6.95;2.13;;;;;;;10.56;47.80;100453.44;5092843;28;20038;-76
2024/01/26 09:13:16;;;;;;;7.00;2.10;;;;;;;10.54;48.46;100458.16;5092246;28;20084;-75
2024/01/26 09:15:43;;;;;;;9.10;2.28;;;;;;;10.21;48.27;100451.03;5074476;28;20050;-76
2024/01/26 09:18:09;;;;;;;6.70;2.53;;;;;;;10.51;47.97;100485.28;5053615;28;20025;-76
2024/01/26 09:20:34;;;;;;;12.35;3.17;;;;;;;10.35;48.68;100465.19;5071377;28;20086;-75
2024/01/26 09:23:00;;;;;;;4.18;1.90;;;;;;;10.45;48.26;100458.41;5071330;28;20456;-75
2024/01/26 09:25:25;;;;;;;5.18;1.70;;;;;;;10.32;47.38;100429.09;5086375;28;20039;-76
2024/01/26 09:27:51;;;;;;;6.70;2.13;;;;;;;10.44;48.43;100430.09;5091127;28;20020;-75
2024/01/26 09:30:16;;;;;;;5.95;2.20;;;;;;;10.79;48.15;100443.13;5090727;28;20050;-76
2024/01/26 09:32:41;;;;;;;7.05;2.28;;;;;;;10.76;47.31;100410.72;5071211;28;20108;-76
2024/01/26 09:35:09;;;;;;;8.98;2.40;;;;;;;10.54;46.77;100423.50;5082217;28;20025;-76
2024/01/26 09:37:35;;;;;;;6.20;1.90;;;;;;;10.50;47.61;100422.28;5072461;28;20111;-76
2024/01/26 09:40:01;;;;;;;7.38;2.28;;;;;;;10.88;48.56;100438.38;5090451;28;20123;-77
2024/01/26 09:42:26;;;;;;;8.02;2.60;;;;;;;10.92;47.40;100415.56;5074255;28;20036;-75
2024/01/26 09:44:52;;;;;;;10.07;3.42;;;;;;;11.15;47.38;100439.06;5078847;28;20105;-76
2024/01/26 09:47:17;;;;;;;12.98;2.33;;;;;;;11.22;46.40;100442.53;5090373;28;20051;-76
2024/01/26 09:49:55;;;;;;;4.10;1.88;;;;;;;11.45;46.41;100435.81;5080718;28;20035;-76
2024/01/26 09:52:21;;;;;;;5.43;1.95;;;;;;;11.61;45.63;100435.28;5080779;28;20024;-77
2024/01/26 09:54:47;;;;;;;4.88;1.92;;;;;;;11.83;45.07;100453.66;5080088;28;20028;-76
2024/01/26 09:57:14;;;;;;;8.32;1.90;;;;;;;11.36;44.58;100439.75;5081111;28;20024;-75
2024/01/26 09:59:39;;;;;;;8.23;1.88;;;;;;;11.58;45.52;100422.34;5080995;28;20051;-76
2024/01/26 10:02:06;;;;;;;7.43;2.00;;;;;;;11.66;44.99;100438.13;5081047;28;20039;-76
2024/01/26 10:04:32;;;;;;;4.65;2.38;;;;;;;11.61;44.50;100435.28;5060117;28;20032;-75
2024/01/26 10:06:59;;;;;;;7.43;2.20;;;;;;;11.43;44.30;100429.88;5061014;28;20020;-76
2024/01/26 10:09:25;;;;;;;7.25;2.05;;;;;;;11.36;44.70;100431.75;5080011;28;20040;-76
2024/01/26 10:11:51;;;;;;;7.00;2.63;;;;;;;11.52;44.05;100423.22;5080886;28;20066;-76
2024/01/26 10:14:22;;;;;;;4.22;1.85;;;;;;;11.37;44.16;100406.69;5078314;28;20040;-76
2024/01/26 10:16:58;;;;;;;5.72;1.95;;;;;;;11.25;45.96;100425.25;5061796;28;20395;-76
2024/01/26 10:19:25;;;;;;;3.97;1.73;;;;;;;11.59;44.61;100421.34;5086433;28;20149;-75
2024/01/26 10:21:51;;;;;;;7.18;1.83;;;;;;;11.54;45.21;100434.50;5079208;28;20029;-76
2024/01/26 10:24:18;;;;;;;7.50;2.20;;;;;;;11.97;43.85;100425.81;5051139;28;20028;-76
2024/01/26 10:26:44;;;;;;;5.95;2.17;;;;;;;11.76;43.52;100428.81;5069089;28;20032;-77
2024/01/26 10:29:10;;;;;;;6.82;2.58;;;;;;;11.31;44.98;100396.88;5069088;28;20047;-76
2024/01/26 10:31:37;;;;;;;6.47;2.25;;;;;;;11.69;43.23;100436.03;5069152;28;20025;-75
2024/01/26 10:34:05;;;;;;;4.60;1.90;;;;;;;11.90;43.29;100425.03;5068922;28;20062;-75
2024/01/26 10:36:33;;;;;;;5.97;1.77;;;;;;;12.04;43.03;100429.22;5085708;28;20032;-77
2024/01/26 10:39:00;;;;;;;;;;;;;;;12.55;43.02;100423.78;5089067;28;20115;-76
2024/01/26 10:41:31;;;;;;;5.53;2.28;;;;;;;12.20;42.24;100385.06;5072685;28;19923;-75
2024/01/26 10:43:57;;;;;;;6.00;1.90;;;;;;;12.19;42.20;100398.66;5068874;28;20040;-76
2024/01/26 10:46:24;;;;;;;5.25;1.90;;;;;;;12.45;41.86;100402.91;5083757;28;20030;-76
2024/01/26 10:48:52;;;;;;;4.27;1.70;;;;;;;12.56;41.01;100399.47;5089057;28;20024;-76
2024/01/26 10:51:19;;;;;;;3.60;1.60;;;;;;;12.64;41.28;100411.72;5069243;28;20691;-77
2024/01/26 10:53:46;;;;;;;6.23;1.83;;;;;;;12.89;40.96;100408.94;5079394;28;20073;-76
2024/01/26 10:56:11;;;;;;;5.80;1.75;;;;;;;13.38;41.51;100404.41;5060281;28;20032;-77
2024/01/26 10:58:37;;;;;;;6.43;1.63;;;;;;;13.71;40.51;100397.72;5080164;28;20024;-76
2024/01/26 11:01:04;;;;;;;4.45;1.70;;;;;;;13.34;39.58;100394.38;5078450;28;20040;-76
2024/01/26 11:03:30;;;;;;;6.60;2.00;;;;;;;13.27;40.04;100373.81;5079166;28;20516;-76
2024/01/26 11:05:56;;;;;;;5.05;1.70;;;;;;;12.78;39.09;100370.38;5081470;28;20504;-76
2024/01/26 11:08:26;;;;;;;4.82;1.90;;;;;;;12.92;40.01;100370.22;5068023;28;20024;-77
2024/01/26 11:10:53;;;;;;;2.78;1.10;;;;;;;12.77;38.91;100357.22;5068350;28;20071;-76
2024/01/26 11:13:21;;;;;;;4.60;1.50;;;;;;;12.63;39.45;100356.59;5068202;28;20032;-77
2024/01/26 11:15:47;;;;;;;5.70;1.75;;;;;;;12.64;40.05;100374.28;5074548;28;20043;-77
2024/01/26 11:18:24;;;;;;;9.13;1.95;;;;;;;12.80;39.75;100365.63;5087984;28;20040;-76
2024/01/26 11:20:49;;;;;;;5.00;1.67;;;;;;;13.22;39.33;100384.41;5088531;28;20425;-76
2024/01/26 11:23:15;;;;;;;5.25;1.67;;;;;;;13.25;39.91;100381.28;5080073;28;20028;-76